sensor_id;sensor_type;location;lat;lon;timestamp;pressure;altitude;pressure_sealevel;temperature;humidity
45763;BME280;37512;52.408;13.356;2022-09-09T00:02:22;100542.22;;;13.88;100.00
45763;BME280;37512;52.408;13.356;2022-09-09T00:06:31;100549.00;;;13.91;100.00
45763;BME280;37512;52.408;13.356;2022-09-09T00:10:37;100551.03;;;13.94;100.00
45763;BME280;37512;52.408;13.356;2022-09-09T00:14:56;100545.00;;;13.81;100.00
45763;BME280;37512;52.408;13.356;2022-09-09T00:19:10;100546.91;;;13.66;100.00
45763;BME280;37512;52.408;13.356;2022-09-09T00:23:46;100539.41;;;13.81;100.00
45763;BME280;37512;52.408;13.356;2022-09-09T00:27:50;100535.03;;;13.80;100.00
45763;BME280;37512;52.408;13.356;2022-09-09T00:32:00;100521.53;;;13.93;100.00
45763;BME280;37512;52.408;13.356;2022-09-09T00:36:12;100527.88;;;13.83;100.00
45763;BME280;37512;52.408;13.356;2022-09-09T00:40:35;100523.47;;;13.81;100.00
45763;BME280;37512;52.408;13.356;2022-09-09T00:44:38;100521.81;;;13.70;100.00
45763;BME280;37512;52.408;13.356;2022-09-09T00:49:03;100530.94;;;13.63;100.00
45763;BME280;37512;52.408;13.356;2022-09-09T00:57:28;100528.59;;;13.72;100.00
45763;BME280;37512;52.408;13.356;2022-09-09T01:01:30;100533.34;;;13.68;100.00
45763;BME280;37512;52.408;13.356;2022-09-09T01:09:45;100547.31;;;13.65;100.00
45763;BME280;37512;52.408;13.356;2022-09-09T01:14:00;100535.69;;;13.59;100.00
45763;BME280;37512;52.408;13.356;2022-09-09T01:18:15;100546.38;;;13.39;100.00
45763;BME280;37512;52.408;13.356;2022-09-09T01:22:26;100534.75;;;13.30;100.00
45763;BME280;37512;52.408;13.356;2022-09-09T01:26:34;100538.38;;;13.37;100.00
45763;BME280;37512;52.408;13.356;2022-09-09T01:30:39;100540.88;;;13.57;100.00
45763;BME280;37512;52.408;13.356;2022-09-09T01:34:41;100536.91;;;13.58;100.00
45763;BME280;37512;52.408;13.356;2022-09-09T01:38:43;100538.47;;;13.52;100.00
45763;BME280;37512;52.408;13.356;2022-09-09T01:42:44;100534.06;;;13.47;100.00
45763;BME280;37512;52.408;13.356;2022-09-09T01:46:46;100533.69;;;13.52;100.00
45763;BME280;37512;52.408;13.356;2022-09-09T01:50:47;100529.69;;;13.46;100.00
45763;BME280;37512;52.408;13.356;2022-09-09T01:54:49;100541.66;;;13.50;100.00
45763;BME280;37512;52.408;13.356;2022-09-09T01:59:23;100536.00;;;13.43;100.00
45763;BME280;37512;52.408;13.356;2022-09-09T02:03:32;100543.63;;;13.50;100.00
45763;BME280;37512;52.408;13.356;2022-09-09T02:11:43;100549.13;;;13.35;100.00
45763;BME280;37512;52.408;13.356;2022-09-09T02:15:57;100545.91;;;13.33;100.00
45763;BME280;37512;52.408;13.356;2022-09-09T02:20:07;100552.66;;;13.29;100.00
45763;BME280;37512;52.408;13.356;2022-09-09T02:24:12;100547.13;;;13.32;100.00
45763;BME280;37512;52.408;13.356;2022-09-09T02:28:15;100546.94;;;13.14;100.00
45763;BME280;37512;52.408;13.356;2022-09-09T02:32:21;100547.38;;;13.20;100.00
45763;BME280;37512;52.408;13.356;2022-09-09T02:36:25;100534.97;;;13.10;100.00
45763;BME280;37512;52.408;13.356;2022-09-09T02:40:28;100531.41;;;13.13;100.00
45763;BME280;37512;52.408;13.356;2022-09-09T02:44:29;100538.19;;;13.12;100.00
45763;BME280;37512;52.408;13.356;2022-09-09T02:48:51;100544.22;;;13.22;100.00
45763;BME280;37512;52.408;13.356;2022-09-09T02:53:07;100538.97;;;13.13;100.00
45763;BME280;37512;52.408;13.356;2022-09-09T02:57:17;100550.09;;;13.09;100.00
45763;BME280;37512;52.408;13.356;2022-09-09T03:01:20;100550.28;;;12.83;100.00
45763;BME280;37512;52.408;13.356;2022-09-09T03:05:22;100557.13;;;12.92;100.00
45763;BME280;37512;52.408;13.356;2022-09-09T03:09:24;100555.47;;;12.84;100.00
45763;BME280;37512;52.408;13.356;2022-09-09T03:13:27;100560.63;;;12.82;100.00
45763;BME280;37512;52.408;13.356;2022-09-09T03:17:28;100557.78;;;12.79;100.00
45763;BME280;37512;52.408;13.356;2022-09-09T03:21:30;100574.38;;;12.68;100.00
45763;BME280;37512;52.408;13.356;2022-09-09T03:25:31;100567.75;;;12.80;100.00
45763;BME280;37512;52.408;13.356;2022-09-09T03:29:33;100574.84;;;12.73;100.00
45763;BME280;37512;52.408;13.356;2022-09-09T03:33:38;100573.59;;;12.67;100.00
45763;BME280;37512;52.408;13.356;2022-09-09T03:37:39;100570.56;;;12.83;100.00
45763;BME280;37512;52.408;13.356;2022-09-09T03:41:41;100576.13;;;12.80;100.00
45763;BME280;37512;52.408;13.356;2022-09-09T03:45:46;100579.22;;;12.74;100.00
45763;BME280;37512;52.408;13.356;2022-09-09T03:49:48;100570.03;;;12.67;100.00
45763;BME280;37512;52.408;13.356;2022-09-09T03:53:50;100568.19;;;12.85;100.00
45763;BME280;37512;52.408;13.356;2022-09-09T03:57:51;100565.03;;;12.87;100.00
45763;BME280;37512;52.408;13.356;2022-09-09T04:01:53;100569.88;;;12.97;100.00
45763;BME280;37512;52.408;13.356;2022-09-09T04:05:56;100570.56;;;12.83;100.00
45763;BME280;37512;52.408;13.356;2022-09-09T04:09:59;100556.53;;;12.72;100.00
45763;BME280;37512;52.408;13.356;2022-09-09T04:14:00;100563.66;;;12.70;100.00
45763;BME280;37512;52.408;13.356;2022-09-09T04:18:02;100576.59;;;12.48;100.00
45763;BME280;37512;52.408;13.356;2022-09-09T04:22:04;100577.03;;;12.50;100.00
45763;BME280;37512;52.408;13.356;2022-09-09T04:26:05;100578.97;;;12.49;100.00
45763;BME280;37512;52.408;13.356;2022-09-09T04:30:07;100578.19;;;12.49;100.00
45763;BME280;37512;52.408;13.356;2022-09-09T04:34:09;100582.72;;;12.64;100.00
45763;BME280;37512;52.408;13.356;2022-09-09T04:38:10;100585.38;;;12.53;100.00
45763;BME280;37512;52.408;13.356;2022-09-09T04:42:12;100589.78;;;12.54;100.00
45763;BME280;37512;52.408;13.356;2022-09-09T04:46:14;100591.66;;;12.43;100.00
45763;BME280;37512;52.408;13.356;2022-09-09T04:50:16;100604.53;;;12.59;100.00
45763;BME280;37512;52.408;13.356;2022-09-09T04:54:17;100605.44;;;12.32;100.00
45763;BME280;37512;52.408;13.356;2022-09-09T04:58:19;100593.78;;;12.57;100.00
45763;BME280;37512;52.408;13.356;2022-09-09T05:02:22;100592.59;;;12.58;100.00
45763;BME280;37512;52.408;13.356;2022-09-09T05:06:28;100597.78;;;12.60;100.00
45763;BME280;37512;52.408;13.356;2022-09-09T05:10:33;100601.09;;;12.72;100.00
45763;BME280;37512;52.408;13.356;2022-09-09T05:14:35;100601.84;;;12.66;100.00
45763;BME280;37512;52.408;13.356;2022-09-09T05:18:41;100597.63;;;12.86;100.00
45763;BME280;37512;52.408;13.356;2022-09-09T05:22:47;100598.78;;;12.82;100.00
45763;BME280;37512;52.408;13.356;2022-09-09T05:26:48;100605.94;;;12.79;100.00
45763;BME280;37512;52.408;13.356;2022-09-09T05:31:00;100596.09;;;12.89;100.00
45763;BME280;37512;52.408;13.356;2022-09-09T05:35:02;100602.56;;;13.00;100.00
45763;BME280;37512;52.408;13.356;2022-09-09T05:39:04;100602.16;;;12.98;100.00
45763;BME280;37512;52.408;13.356;2022-09-09T05:43:05;100612.03;;;12.92;100.00
45763;BME280;37512;52.408;13.356;2022-09-09T05:47:07;100607.88;;;13.16;100.00
45763;BME280;37512;52.408;13.356;2022-09-09T05:51:11;100612.69;;;13.23;100.00
45763;BME280;37512;52.408;13.356;2022-09-09T05:55:13;100621.31;;;13.51;100.00
45763;BME280;37512;52.408;13.356;2022-09-09T05:59:15;100625.59;;;13.38;100.00
45763;BME280;37512;52.408;13.356;2022-09-09T06:03:17;100623.66;;;13.46;100.00
45763;BME280;37512;52.408;13.356;2022-09-09T06:07:18;100624.00;;;13.41;100.00
45763;BME280;37512;52.408;13.356;2022-09-09T06:11:26;100629.28;;;13.53;100.00
45763;BME280;37512;52.408;13.356;2022-09-09T06:15:28;100632.88;;;13.53;100.00
45763;BME280;37512;52.408;13.356;2022-09-09T06:19:31;100647.31;;;13.70;100.00
45763;BME280;37512;52.408;13.356;2022-09-09T06:23:33;100634.22;;;13.77;100.00
45763;BME280;37512;52.408;13.356;2022-09-09T06:27:36;100629.44;;;13.71;100.00
45763;BME280;37512;52.408;13.356;2022-09-09T06:31:37;100638.63;;;13.82;100.00
45763;BME280;37512;52.408;13.356;2022-09-09T06:35:39;100642.34;;;14.00;100.00
45763;BME280;37512;52.408;13.356;2022-09-09T06:39:40;100638.31;;;13.94;100.00
45763;BME280;37512;52.408;13.356;2022-09-09T06:43:42;100631.19;;;14.00;100.00
45763;BME280;37512;52.408;13.356;2022-09-09T06:47:44;100636.88;;;14.22;100.00
45763;BME280;37512;52.408;13.356;2022-09-09T06:51:45;100628.53;;;14.36;100.00
45763;BME280;37512;52.408;13.356;2022-09-09T06:55:47;100626.25;;;14.56;100.00
45763;BME280;37512;52.408;13.356;2022-09-09T06:59:49;100627.44;;;14.59;100.00
45763;BME280;37512;52.408;13.356;2022-09-09T07:03:52;100636.25;;;14.75;100.00
45763;BME280;37512;52.408;13.356;2022-09-09T07:07:54;100629.09;;;14.89;100.00
45763;BME280;37512;52.408;13.356;2022-09-09T07:11:55;100629.13;;;15.06;100.00
45763;BME280;37512;52.408;13.356;2022-09-09T07:16:05;100635.16;;;15.19;100.00
45763;BME280;37512;52.408;13.356;2022-09-09T07:20:07;100631.53;;;15.22;100.00
45763;BME280;37512;52.408;13.356;2022-09-09T07:24:10;100634.72;;;15.64;100.00
45763;BME280;37512;52.408;13.356;2022-09-09T07:28:11;100643.50;;;15.91;100.00
45763;BME280;37512;52.408;13.356;2022-09-09T07:32:13;100644.31;;;15.77;100.00
45763;BME280;37512;52.408;13.356;2022-09-09T07:36:18;100639.03;;;16.12;100.00
45763;BME280;37512;52.408;13.356;2022-09-09T07:40:23;100649.34;;;16.36;100.00
45763;BME280;37512;52.408;13.356;2022-09-09T07:44:24;100647.41;;;16.19;100.00
45763;BME280;37512;52.408;13.356;2022-09-09T07:48:26;100646.44;;;16.61;100.00
45763;BME280;37512;52.408;13.356;2022-09-09T07:52:27;100653.97;;;16.71;100.00
45763;BME280;37512;52.408;13.356;2022-09-09T07:56:30;100662.25;;;17.04;100.00
45763;BME280;37512;52.408;13.356;2022-09-09T08:00:34;100663.88;;;16.98;100.00
45763;BME280;37512;52.408;13.356;2022-09-09T08:04:35;100661.41;;;17.07;100.00
45763;BME280;37512;52.408;13.356;2022-09-09T08:08:36;100664.38;;;16.71;100.00
45763;BME280;37512;52.408;13.356;2022-09-09T08:12:40;100667.84;;;17.00;100.00
45763;BME280;37512;52.408;13.356;2022-09-09T08:16:57;100682.94;;;17.17;100.00
45763;BME280;37512;52.408;13.356;2022-09-09T08:21:05;100668.59;;;17.11;100.00
45763;BME280;37512;52.408;13.356;2022-09-09T08:25:08;100674.84;;;17.33;100.00
45763;BME280;37512;52.408;13.356;2022-09-09T08:29:10;100671.66;;;17.31;100.00
45763;BME280;37512;52.408;13.356;2022-09-09T08:33:12;100672.75;;;17.45;100.00
45763;BME280;37512;52.408;13.356;2022-09-09T08:37:14;100677.69;;;17.26;100.00
45763;BME280;37512;52.408;13.356;2022-09-09T08:45:37;100681.06;;;17.55;100.00
45763;BME280;37512;52.408;13.356;2022-09-09T08:54:13;100685.13;;;17.96;100.00
45763;BME280;37512;52.408;13.356;2022-09-09T08:58:46;100686.44;;;17.81;100.00
45763;BME280;37512;52.408;13.356;2022-09-09T09:07:20;100694.94;;;18.18;100.00
45763;BME280;37512;52.408;13.356;2022-09-09T09:11:40;100684.22;;;18.06;100.00
45763;BME280;37512;52.408;13.356;2022-09-09T09:15:48;100687.75;;;18.14;100.00
45763;BME280;37512;52.408;13.356;2022-09-09T09:19:51;100683.19;;;18.62;100.00
45763;BME280;37512;52.408;13.356;2022-09-09T09:23:59;100677.41;;;19.30;100.00
45763;BME280;37512;52.408;13.356;2022-09-09T09:28:15;100685.59;;;19.21;96.06
45763;BME280;37512;52.408;13.356;2022-09-09T09:32:19;100684.41;;;19.46;96.46
45763;BME280;37512;52.408;13.356;2022-09-09T09:36:24;100683.66;;;19.65;95.89
45763;BME280;37512;52.408;13.356;2022-09-09T09:40:33;100671.66;;;19.61;92.23
45763;BME280;37512;52.408;13.356;2022-09-09T09:44:35;100684.34;;;19.96;93.93
45763;BME280;37512;52.408;13.356;2022-09-09T09:48:38;100677.44;;;19.77;89.08
45763;BME280;37512;52.408;13.356;2022-09-09T09:52:41;100673.66;;;20.87;84.80
45763;BME280;37512;52.408;13.356;2022-09-09T09:56:44;100682.75;;;21.48;79.47
45763;BME280;37512;52.408;13.356;2022-09-09T10:00:50;100681.75;;;20.85;79.88
45763;BME280;37512;52.408;13.356;2022-09-09T10:09:28;100688.25;;;21.19;78.74
45763;BME280;37512;52.408;13.356;2022-09-09T10:13:51;100684.72;;;20.98;78.31
45763;BME280;37512;52.408;13.356;2022-09-09T10:18:34;100685.81;;;20.84;83.24
45763;BME280;37512;52.408;13.356;2022-09-09T10:22:29;100692.03;;;20.36;83.24
45763;BME280;37512;52.408;13.356;2022-09-09T10:26:42;100694.50;;;20.74;81.86
45763;BME280;37512;52.408;13.356;2022-09-09T10:39:10;100692.47;;;21.10;83.10
45763;BME280;37512;52.408;13.356;2022-09-09T10:56:13;100692.81;;;22.82;69.38
45763;BME280;37512;52.408;13.356;2022-09-09T11:00:19;100688.69;;;22.58;69.26
45763;BME280;37512;52.408;13.356;2022-09-09T11:04:48;100690.25;;;23.01;66.94
45763;BME280;37512;52.408;13.356;2022-09-09T11:08:54;100694.81;;;22.56;67.29
45763;BME280;37512;52.408;13.356;2022-09-09T11:13:02;100693.88;;;22.01;68.83
45763;BME280;37512;52.408;13.356;2022-09-09T11:17:24;100685.53;;;21.31;72.36
45763;BME280;37512;52.408;13.356;2022-09-09T11:21:37;100675.84;;;22.69;67.13
45763;BME280;37512;52.408;13.356;2022-09-09T11:25:45;100688.31;;;22.97;67.97
45763;BME280;37512;52.408;13.356;2022-09-09T11:38:52;100684.88;;;22.35;71.71
45763;BME280;37512;52.408;13.356;2022-09-09T11:47:18;100685.28;;;21.75;71.44
45763;BME280;37512;52.408;13.356;2022-09-09T11:55:30;100670.69;;;21.11;73.48
45763;BME280;37512;52.408;13.356;2022-09-09T11:59:34;100657.31;;;21.64;70.25
45763;BME280;37512;52.408;13.356;2022-09-09T12:03:41;100656.63;;;21.60;69.62
45763;BME280;37512;52.408;13.356;2022-09-09T12:07:55;100650.28;;;21.56;69.58
45763;BME280;37512;52.408;13.356;2022-09-09T12:12:24;100641.47;;;22.42;67.73
45763;BME280;37512;52.408;13.356;2022-09-09T12:16:32;100637.66;;;23.51;63.65
45763;BME280;37512;52.408;13.356;2022-09-09T12:20:39;100643.16;;;23.67;59.78
45763;BME280;37512;52.408;13.356;2022-09-09T12:29:47;100637.91;;;23.31;62.13
45763;BME280;37512;52.408;13.356;2022-09-09T12:33:54;100628.22;;;23.06;61.76
45763;BME280;37512;52.408;13.356;2022-09-09T12:37:58;100628.25;;;22.09;63.89
45763;BME280;37512;52.408;13.356;2022-09-09T12:42:01;100625.06;;;22.07;65.07
45763;BME280;37512;52.408;13.356;2022-09-09T12:46:08;100624.44;;;21.58;65.61
45763;BME280;37512;52.408;13.356;2022-09-09T12:50:27;100621.88;;;21.92;65.73
45763;BME280;37512;52.408;13.356;2022-09-09T12:54:30;100631.38;;;21.69;66.03
45763;BME280;37512;52.408;13.356;2022-09-09T12:58:31;100633.06;;;21.96;65.57
45763;BME280;37512;52.408;13.356;2022-09-09T13:02:34;100639.38;;;21.71;66.82
45763;BME280;37512;52.408;13.356;2022-09-09T13:06:36;100645.25;;;21.93;67.16
45763;BME280;37512;52.408;13.356;2022-09-09T13:10:44;100647.94;;;22.13;65.44
45763;BME280;37512;52.408;13.356;2022-09-09T13:14:56;100631.69;;;22.17;67.41
45763;BME280;37512;52.408;13.356;2022-09-09T13:19:16;100633.56;;;22.07;65.55
45763;BME280;37512;52.408;13.356;2022-09-09T13:23:20;100625.34;;;22.55;65.42
45763;BME280;37512;52.408;13.356;2022-09-09T13:27:32;100620.03;;;22.44;66.00
45763;BME280;37512;52.408;13.356;2022-09-09T13:31:36;100612.06;;;22.26;65.88
45763;BME280;37512;52.408;13.356;2022-09-09T13:39:51;100609.91;;;21.72;63.18
45763;BME280;37512;52.408;13.356;2022-09-09T13:43:54;100610.06;;;21.81;63.29
45763;BME280;37512;52.408;13.356;2022-09-09T13:47:56;100606.97;;;21.76;63.75
45763;BME280;37512;52.408;13.356;2022-09-09T13:52:09;100603.50;;;21.55;64.81
45763;BME280;37512;52.408;13.356;2022-09-09T13:56:11;100609.09;;;21.88;64.80
45763;BME280;37512;52.408;13.356;2022-09-09T14:00:12;100621.59;;;22.16;65.41
45763;BME280;37512;52.408;13.356;2022-09-09T14:04:15;100622.00;;;22.02;68.61
45763;BME280;37512;52.408;13.356;2022-09-09T14:08:23;100625.81;;;22.53;70.24
45763;BME280;37512;52.408;13.356;2022-09-09T14:12:25;100622.19;;;22.66;70.24
45763;BME280;37512;52.408;13.356;2022-09-09T14:16:26;100630.06;;;21.41;73.82
45763;BME280;37512;52.408;13.356;2022-09-09T14:20:28;100625.81;;;21.66;74.62
45763;BME280;37512;52.408;13.356;2022-09-09T14:24:30;100622.25;;;22.07;79.42
45763;BME280;37512;52.408;13.356;2022-09-09T14:28:32;100616.38;;;20.91;81.87
45763;BME280;37512;52.408;13.356;2022-09-09T14:32:54;100621.75;;;21.01;79.06
45763;BME280;37512;52.408;13.356;2022-09-09T14:36:55;100613.09;;;20.76;64.37
45763;BME280;37512;52.408;13.356;2022-09-09T14:40:57;100604.09;;;20.64;65.23
45763;BME280;37512;52.408;13.356;2022-09-09T14:44:59;100599.00;;;20.76;64.90
45763;BME280;37512;52.408;13.356;2022-09-09T14:49:01;100598.47;;;21.14;67.22
45763;BME280;37512;52.408;13.356;2022-09-09T14:53:02;100599.53;;;21.03;61.34
45763;BME280;37512;52.408;13.356;2022-09-09T14:57:03;100615.13;;;21.57;60.52
45763;BME280;37512;52.408;13.356;2022-09-09T15:01:13;100622.31;;;21.45;58.78
45763;BME280;37512;52.408;13.356;2022-09-09T15:05:15;100618.50;;;21.98;56.89
45763;BME280;37512;52.408;13.356;2022-09-09T15:09:18;100610.66;;;22.86;52.69
45763;BME280;37512;52.408;13.356;2022-09-09T15:13:19;100608.13;;;23.26;53.59
45763;BME280;37512;52.408;13.356;2022-09-09T15:17:21;100606.69;;;22.96;55.21
45763;BME280;37512;52.408;13.356;2022-09-09T15:21:29;100589.53;;;24.08;53.02
45763;BME280;37512;52.408;13.356;2022-09-09T15:25:31;100588.56;;;23.32;56.71
45763;BME280;37512;52.408;13.356;2022-09-09T15:29:33;100587.78;;;23.53;53.95
45763;BME280;37512;52.408;13.356;2022-09-09T15:33:35;100584.00;;;23.34;56.62
45763;BME280;37512;52.408;13.356;2022-09-09T15:37:38;100577.59;;;23.21;58.55
45763;BME280;37512;52.408;13.356;2022-09-09T15:41:40;100567.63;;;22.91;59.14
45763;BME280;37512;52.408;13.356;2022-09-09T15:45:41;100556.22;;;22.56;61.81
45763;BME280;37512;52.408;13.356;2022-09-09T15:49:42;100546.50;;;22.57;62.70
45763;BME280;37512;52.408;13.356;2022-09-09T15:53:44;100544.91;;;22.82;62.35
45763;BME280;37512;52.408;13.356;2022-09-09T15:57:46;100552.78;;;23.12;61.17
45763;BME280;37512;52.408;13.356;2022-09-09T16:01:48;100562.44;;;23.02;62.88
45763;BME280;37512;52.408;13.356;2022-09-09T16:05:51;100570.63;;;23.35;60.47
45763;BME280;37512;52.408;13.356;2022-09-09T16:09:53;100585.47;;;23.39;61.27
45763;BME280;37512;52.408;13.356;2022-09-09T16:13:55;100593.09;;;23.16;60.84
45763;BME280;37512;52.408;13.356;2022-09-09T16:17:57;100600.47;;;23.01;61.76
45763;BME280;37512;52.408;13.356;2022-09-09T16:21:59;100603.75;;;22.74;61.11
45763;BME280;37512;52.408;13.356;2022-09-09T16:26:01;100627.34;;;22.42;62.98
45763;BME280;37512;52.408;13.356;2022-09-09T16:30:06;100614.47;;;22.11;63.06
45763;BME280;37512;52.408;13.356;2022-09-09T16:34:08;100617.78;;;21.64;67.07
45763;BME280;37512;52.408;13.356;2022-09-09T16:38:10;100620.03;;;21.40;69.95
45763;BME280;37512;52.408;13.356;2022-09-09T16:42:12;100615.94;;;21.08;72.17
45763;BME280;37512;52.408;13.356;2022-09-09T16:46:18;100610.66;;;20.94;72.23
45763;BME280;37512;52.408;13.356;2022-09-09T16:50:20;100611.81;;;20.60;73.33
45763;BME280;37512;52.408;13.356;2022-09-09T16:54:22;100613.75;;;20.63;72.31
45763;BME280;37512;52.408;13.356;2022-09-09T16:58:24;100612.00;;;20.50;72.49
45763;BME280;37512;52.408;13.356;2022-09-09T17:02:25;100615.25;;;20.12;75.88
45763;BME280;37512;52.408;13.356;2022-09-09T17:06:28;100612.91;;;19.87;78.87
45763;BME280;37512;52.408;13.356;2022-09-09T17:10:30;100604.34;;;19.70;78.08
45763;BME280;37512;52.408;13.356;2022-09-09T17:14:32;100599.84;;;19.53;79.43
45763;BME280;37512;52.408;13.356;2022-09-09T17:18:34;100607.31;;;19.16;82.21
45763;BME280;37512;52.408;13.356;2022-09-09T17:22:36;100611.50;;;19.04;82.17
45763;BME280;37512;52.408;13.356;2022-09-09T17:26:38;100596.53;;;19.11;80.56
45763;BME280;37512;52.408;13.356;2022-09-09T17:30:39;100583.94;;;18.95;76.69
45763;BME280;37512;52.408;13.356;2022-09-09T17:34:40;100590.19;;;18.79;79.04
45763;BME280;37512;52.408;13.356;2022-09-09T17:38:42;100599.97;;;18.68;76.96
45763;BME280;37512;52.408;13.356;2022-09-09T17:42:43;100603.84;;;18.50;76.44
45763;BME280;37512;52.408;13.356;2022-09-09T17:46:45;100615.09;;;18.47;76.80
45763;BME280;37512;52.408;13.356;2022-09-09T17:50:47;100610.66;;;18.18;77.13
45763;BME280;37512;52.408;13.356;2022-09-09T17:54:49;100605.72;;;18.30;76.12
45763;BME280;37512;52.408;13.356;2022-09-09T17:58:51;100607.41;;;17.86;79.08
45763;BME280;37512;52.408;13.356;2022-09-09T18:02:53;100597.50;;;17.74;79.47
45763;BME280;37512;52.408;13.356;2022-09-09T18:06:55;100611.66;;;17.63;81.30
45763;BME280;37512;52.408;13.356;2022-09-09T18:11:00;100610.56;;;17.50;83.37
45763;BME280;37512;52.408;13.356;2022-09-09T18:15:01;100611.81;;;17.45;82.88
45763;BME280;37512;52.408;13.356;2022-09-09T18:19:07;100625.41;;;17.47;84.18
45763;BME280;37512;52.408;13.356;2022-09-09T18:23:09;100644.56;;;17.55;85.33
45763;BME280;37512;52.408;13.356;2022-09-09T18:27:11;100644.31;;;17.43;87.86
45763;BME280;37512;52.408;13.356;2022-09-09T18:31:15;100656.16;;;17.12;91.07
45763;BME280;37512;52.408;13.356;2022-09-09T18:35:17;100661.06;;;16.98;96.20
45763;BME280;37512;52.408;13.356;2022-09-09T18:39:20;100663.88;;;16.94;100.00
45763;BME280;37512;52.408;13.356;2022-09-09T18:43:22;100670.75;;;16.82;100.00
45763;BME280;37512;52.408;13.356;2022-09-09T18:47:23;100658.38;;;16.80;100.00
45763;BME280;37512;52.408;13.356;2022-09-09T18:51:27;100667.97;;;16.79;100.00
45763;BME280;37512;52.408;13.356;2022-09-09T18:55:29;100676.03;;;16.66;100.00
45763;BME280;37512;52.408;13.356;2022-09-09T18:59:32;100687.63;;;16.68;100.00
45763;BME280;37512;52.408;13.356;2022-09-09T19:03:34;100686.06;;;16.63;100.00
45763;BME280;37512;52.408;13.356;2022-09-09T19:07:36;100688.91;;;16.52;100.00
45763;BME280;37512;52.408;13.356;2022-09-09T19:11:40;100688.94;;;16.45;100.00
45763;BME280;37512;52.408;13.356;2022-09-09T19:15:42;100688.09;;;16.48;100.00
45763;BME280;37512;52.408;13.356;2022-09-09T19:19:43;100682.94;;;16.43;100.00
45763;BME280;37512;52.408;13.356;2022-09-09T19:23:46;100693.75;;;16.41;100.00
45763;BME280;37512;52.408;13.356;2022-09-09T19:27:48;100697.38;;;16.31;100.00
45763;BME280;37512;52.408;13.356;2022-09-09T19:31:50;100705.00;;;16.27;100.00
45763;BME280;37512;52.408;13.356;2022-09-09T19:36:15;100707.41;;;16.28;100.00
45763;BME280;37512;52.408;13.356;2022-09-09T19:40:18;100707.41;;;16.18;100.00
45763;BME280;37512;52.408;13.356;2022-09-09T19:44:22;100706.66;;;16.06;100.00
45763;BME280;37512;52.408;13.356;2022-09-09T19:48:24;100711.84;;;16.04;100.00
45763;BME280;37512;52.408;13.356;2022-09-09T19:52:27;100708.28;;;15.86;100.00
45763;BME280;37512;52.408;13.356;2022-09-09T19:56:29;100710.25;;;15.89;100.00
45763;BME280;37512;52.408;13.356;2022-09-09T20:00:32;100713.06;;;15.89;100.00
45763;BME280;37512;52.408;13.356;2022-09-09T20:04:34;100705.88;;;15.88;100.00
45763;BME280;37512;52.408;13.356;2022-09-09T20:08:36;100701.47;;;15.98;100.00
45763;BME280;37512;52.408;13.356;2022-09-09T20:12:38;100701.09;;;15.92;100.00
45763;BME280;37512;52.408;13.356;2022-09-09T20:16:40;100705.06;;;15.84;100.00
45763;BME280;37512;52.408;13.356;2022-09-09T20:20:42;100716.28;;;15.77;100.00
45763;BME280;37512;52.408;13.356;2022-09-09T20:24:44;100713.84;;;15.64;100.00
45763;BME280;37512;52.408;13.356;2022-09-09T20:28:46;100722.28;;;15.79;100.00
45763;BME280;37512;52.408;13.356;2022-09-09T20:32:50;100710.25;;;15.60;100.00
45763;BME280;37512;52.408;13.356;2022-09-09T20:36:51;100704.69;;;15.75;100.00
45763;BME280;37512;52.408;13.356;2022-09-09T20:40:54;100702.66;;;15.57;100.00
45763;BME280;37512;52.408;13.356;2022-09-09T20:44:56;100701.47;;;15.55;100.00
45763;BME280;37512;52.408;13.356;2022-09-09T20:48:58;100683.47;;;15.31;100.00
45763;BME280;37512;52.408;13.356;2022-09-09T20:53:03;100680.25;;;15.11;100.00
45763;BME280;37512;52.408;13.356;2022-09-09T20:57:05;100673.47;;;15.37;100.00
45763;BME280;37512;52.408;13.356;2022-09-09T21:01:10;100669.91;;;15.29;100.00
45763;BME280;37512;52.408;13.356;2022-09-09T21:05:14;100667.50;;;15.38;100.00
45763;BME280;37512;52.408;13.356;2022-09-09T21:09:16;100667.91;;;15.51;100.00
45763;BME280;37512;52.408;13.356;2022-09-09T21:13:18;100662.28;;;15.30;100.00
45763;BME280;37512;52.408;13.356;2022-09-09T21:17:20;100663.09;;;15.12;100.00
45763;BME280;37512;52.408;13.356;2022-09-09T21:21:22;100662.25;;;14.90;100.00
45763;BME280;37512;52.408;13.356;2022-09-09T21:25:24;100668.28;;;15.03;100.00
45763;BME280;37512;52.408;13.356;2022-09-09T21:29:26;100666.66;;;15.09;100.00
45763;BME280;37512;52.408;13.356;2022-09-09T21:33:28;100672.22;;;14.91;100.00
45763;BME280;37512;52.408;13.356;2022-09-09T21:37:29;100672.56;;;14.68;100.00
45763;BME280;37512;52.408;13.356;2022-09-09T21:41:31;100677.00;;;14.76;100.00
45763;BME280;37512;52.408;13.356;2022-09-09T21:45:37;100681.00;;;14.86;100.00
45763;BME280;37512;52.408;13.356;2022-09-09T21:49:38;100683.41;;;14.88;100.00
45763;BME280;37512;52.408;13.356;2022-09-09T21:53:40;100682.19;;;14.89;100.00
45763;BME280;37512;52.408;13.356;2022-09-09T21:57:42;100689.00;;;14.95;100.00
45763;BME280;37512;52.408;13.356;2022-09-09T22:01:45;100680.63;;;14.88;100.00
45763;BME280;37512;52.408;13.356;2022-09-09T22:05:48;100678.56;;;14.77;100.00
45763;BME280;37512;52.408;13.356;2022-09-09T22:09:54;100680.94;;;14.68;100.00